sensor_id;sensor_type;location;lat;lon;timestamp;temperature;humidity
16907;DHT22;8570;52.380;4.654;2022-11-28T00:02:21;7.20;99.90
16907;DHT22;8570;52.380;4.654;2022-11-28T00:07:23;7.20;99.90
16907;DHT22;8570;52.380;4.654;2022-11-28T00:12:25;7.20;99.90
16907;DHT22;8570;52.380;4.654;2022-11-28T00:17:28;7.20;99.90
16907;DHT22;8570;52.380;4.654;2022-11-28T00:22:30;7.20;99.90
16907;DHT22;8570;52.380;4.654;2022-11-28T00:27:33;7.20;99.90
16907;DHT22;8570;52.380;4.654;2022-11-28T00:32:36;7.30;99.90
16907;DHT22;8570;52.380;4.654;2022-11-28T00:37:38;7.30;99.90
16907;DHT22;8570;52.380;4.654;2022-11-28T00:42:40;7.30;99.90
16907;DHT22;8570;52.380;4.654;2022-11-28T00:47:43;7.30;99.90
16907;DHT22;8570;52.380;4.654;2022-11-28T00:52:46;7.30;99.90
16907;DHT22;8570;52.380;4.654;2022-11-28T00:57:48;7.30;99.90
16907;DHT22;8570;52.380;4.654;2022-11-28T01:02:51;7.30;99.90
16907;DHT22;8570;52.380;4.654;2022-11-28T01:07:53;7.30;99.90
16907;DHT22;8570;52.380;4.654;2022-11-28T01:12:54;7.30;99.90
16907;DHT22;8570;52.380;4.654;2022-11-28T01:17:58;7.30;99.90
16907;DHT22;8570;52.380;4.654;2022-11-28T01:23:00;7.30;99.90
16907;DHT22;8570;52.380;4.654;2022-11-28T01:28:02;7.40;99.90
16907;DHT22;8570;52.380;4.654;2022-11-28T01:33:06;7.40;99.90
16907;DHT22;8570;52.380;4.654;2022-11-28T01:38:08;7.40;99.90
16907;DHT22;8570;52.380;4.654;2022-11-28T01:43:10;7.40;99.90
16907;DHT22;8570;52.380;4.654;2022-11-28T01:48:16;7.40;99.90
16907;DHT22;8570;52.380;4.654;2022-11-28T01:53:19;7.40;99.90
16907;DHT22;8570;52.380;4.654;2022-11-28T01:58:22;7.40;99.90
16907;DHT22;8570;52.380;4.654;2022-11-28T02:03:29;7.40;99.90
16907;DHT22;8570;52.380;4.654;2022-11-28T02:08:34;7.50;99.90
16907;DHT22;8570;52.380;4.654;2022-11-28T02:13:42;7.50;99.90
16907;DHT22;8570;52.380;4.654;2022-11-28T02:19:12;7.50;99.90
16907;DHT22;8570;52.380;4.654;2022-11-28T02:24:51;7.60;99.90
16907;DHT22;8570;52.380;4.654;2022-11-28T02:30:07;7.60;99.90
16907;DHT22;8570;52.380;4.654;2022-11-28T02:35:16;7.60;99.90
16907;DHT22;8570;52.380;4.654;2022-11-28T02:40:22;7.60;99.90
16907;DHT22;8570;52.380;4.654;2022-11-28T02:45:31;7.70;99.90
16907;DHT22;8570;52.380;4.654;2022-11-28T02:50:43;7.70;99.90
16907;DHT22;8570;52.380;4.654;2022-11-28T02:55:47;7.80;99.90
16907;DHT22;8570;52.380;4.654;2022-11-28T03:00:51;7.80;99.90
16907;DHT22;8570;52.380;4.654;2022-11-28T03:05:58;7.80;99.90
16907;DHT22;8570;52.380;4.654;2022-11-28T03:11:06;7.90;99.90
16907;DHT22;8570;52.380;4.654;2022-11-28T03:16:16;7.90;99.90
16907;DHT22;8570;52.380;4.654;2022-11-28T03:21:24;7.90;99.90
16907;DHT22;8570;52.380;4.654;2022-11-28T03:26:36;8.00;99.90
16907;DHT22;8570;52.380;4.654;2022-11-28T03:31:43;8.00;99.90
16907;DHT22;8570;52.380;4.654;2022-11-28T03:36:50;8.00;99.90
16907;DHT22;8570;52.380;4.654;2022-11-28T03:41:56;8.10;99.90
16907;DHT22;8570;52.380;4.654;2022-11-28T03:47:01;8.10;99.90
16907;DHT22;8570;52.380;4.654;2022-11-28T03:52:09;8.20;99.90
16907;DHT22;8570;52.380;4.654;2022-11-28T03:57:17;8.20;99.90
16907;DHT22;8570;52.380;4.654;2022-11-28T04:02:22;8.20;99.90
16907;DHT22;8570;52.380;4.654;2022-11-28T04:07:38;8.30;99.90
16907;DHT22;8570;52.380;4.654;2022-11-28T04:12:50;8.30;99.90
16907;DHT22;8570;52.380;4.654;2022-11-28T04:17:58;8.40;99.90
16907;DHT22;8570;52.380;4.654;2022-11-28T04:23:06;8.40;99.90
16907;DHT22;8570;52.380;4.654;2022-11-28T04:28:13;8.40;99.90
16907;DHT22;8570;52.380;4.654;2022-11-28T04:33:17;8.50;99.90
16907;DHT22;8570;52.380;4.654;2022-11-28T04:38:23;8.50;99.90
16907;DHT22;8570;52.380;4.654;2022-11-28T04:43:30;8.50;99.90
16907;DHT22;8570;52.380;4.654;2022-11-28T04:48:34;8.60;99.90
16907;DHT22;8570;52.380;4.654;2022-11-28T04:53:44;8.60;99.90
16907;DHT22;8570;52.380;4.654;2022-11-28T04:58:49;8.70;99.90
16907;DHT22;8570;52.380;4.654;2022-11-28T05:03:51;8.70;99.90
16907;DHT22;8570;52.380;4.654;2022-11-28T05:08:56;8.70;99.90
16907;DHT22;8570;52.380;4.654;2022-11-28T05:13:57;8.70;99.90
16907;DHT22;8570;52.380;4.654;2022-11-28T05:18:59;8.80;99.90
16907;DHT22;8570;52.380;4.654;2022-11-28T05:24:03;8.80;99.90
16907;DHT22;8570;52.380;4.654;2022-11-28T05:29:06;8.80;99.90
16907;DHT22;8570;52.380;4.654;2022-11-28T05:34:08;8.90;99.90
16907;DHT22;8570;52.380;4.654;2022-11-28T05:39:11;8.90;99.90
16907;DHT22;8570;52.380;4.654;2022-11-28T05:44:13;8.90;99.90
16907;DHT22;8570;52.380;4.654;2022-11-28T05:49:15;8.90;99.90
16907;DHT22;8570;52.380;4.654;2022-11-28T05:54:18;9.00;99.90
16907;DHT22;8570;52.380;4.654;2022-11-28T05:59:20;9.00;99.90
16907;DHT22;8570;52.380;4.654;2022-11-28T06:04:22;9.00;99.90
16907;DHT22;8570;52.380;4.654;2022-11-28T06:09:25;9.00;99.90
16907;DHT22;8570;52.380;4.654;2022-11-28T06:14:27;9.00;99.90
16907;DHT22;8570;52.380;4.654;2022-11-28T06:19:29;9.00;99.90
16907;DHT22;8570;52.380;4.654;2022-11-28T06:24:32;9.00;99.90
16907;DHT22;8570;52.380;4.654;2022-11-28T06:29:34;9.00;99.90
16907;DHT22;8570;52.380;4.654;2022-11-28T06:34:36;9.00;99.90
16907;DHT22;8570;52.380;4.654;2022-11-28T06:39:39;9.00;99.90
16907;DHT22;8570;52.380;4.654;2022-11-28T06:44:41;9.00;99.90
16907;DHT22;8570;52.380;4.654;2022-11-28T06:49:43;9.00;99.90
16907;DHT22;8570;52.380;4.654;2022-11-28T06:54:46;9.00;99.90
16907;DHT22;8570;52.380;4.654;2022-11-28T06:59:48;9.10;99.90
16907;DHT22;8570;52.380;4.654;2022-11-28T07:04:50;9.20;99.90
16907;DHT22;8570;52.380;4.654;2022-11-28T07:09:53;9.20;99.90
16907;DHT22;8570;52.380;4.654;2022-11-28T07:14:55;9.20;99.90
16907;DHT22;8570;52.380;4.654;2022-11-28T07:19:57;9.20;99.90
16907;DHT22;8570;52.380;4.654;2022-11-28T07:25:00;9.10;99.90
16907;DHT22;8570;52.380;4.654;2022-11-28T07:30:02;9.10;99.90
16907;DHT22;8570;52.380;4.654;2022-11-28T07:35:05;9.10;99.90
16907;DHT22;8570;52.380;4.654;2022-11-28T07:40:09;9.10;99.90
16907;DHT22;8570;52.380;4.654;2022-11-28T07:45:13;9.10;99.90
16907;DHT22;8570;52.380;4.654;2022-11-28T07:50:15;9.00;99.90
16907;DHT22;8570;52.380;4.654;2022-11-28T07:55:18;9.00;99.90
16907;DHT22;8570;52.380;4.654;2022-11-28T08:00:21;9.00;99.90
16907;DHT22;8570;52.380;4.654;2022-11-28T08:05:23;9.00;99.90
16907;DHT22;8570;52.380;4.654;2022-11-28T08:10:26;9.00;99.90
16907;DHT22;8570;52.380;4.654;2022-11-28T08:15:28;9.10;99.90
16907;DHT22;8570;52.380;4.654;2022-11-28T08:20:32;9.10;99.90
16907;DHT22;8570;52.380;4.654;2022-11-28T08:25:35;9.10;99.90
16907;DHT22;8570;52.380;4.654;2022-11-28T08:30:37;9.10;99.90
16907;DHT22;8570;52.380;4.654;2022-11-28T08:35:39;9.10;99.90
16907;DHT22;8570;52.380;4.654;2022-11-28T08:40:42;9.20;99.90
16907;DHT22;8570;52.380;4.654;2022-11-28T08:45:45;9.20;99.90
16907;DHT22;8570;52.380;4.654;2022-11-28T08:50:47;9.20;99.90
16907;DHT22;8570;52.380;4.654;2022-11-28T08:55:52;9.30;99.90
16907;DHT22;8570;52.380;4.654;2022-11-28T09:00:54;9.30;99.90
16907;DHT22;8570;52.380;4.654;2022-11-28T09:06:00;9.30;99.90
16907;DHT22;8570;52.380;4.654;2022-11-28T09:11:05;9.30;99.90
16907;DHT22;8570;52.380;4.654;2022-11-28T09:16:07;9.40;99.90
16907;DHT22;8570;52.380;4.654;2022-11-28T09:21:12;9.40;99.90
16907;DHT22;8570;52.380;4.654;2022-11-28T09:26:18;9.40;99.90
16907;DHT22;8570;52.380;4.654;2022-11-28T09:31:23;9.40;99.90
16907;DHT22;8570;52.380;4.654;2022-11-28T09:36:25;9.50;99.90
16907;DHT22;8570;52.380;4.654;2022-11-28T09:41:38;9.50;99.90
16907;DHT22;8570;52.380;4.654;2022-11-28T09:46:42;9.60;99.90
16907;DHT22;8570;52.380;4.654;2022-11-28T09:51:50;9.60;99.90
16907;DHT22;8570;52.380;4.654;2022-11-28T09:56:56;9.70;99.90
16907;DHT22;8570;52.380;4.654;2022-11-28T10:02:08;9.80;99.90
16907;DHT22;8570;52.380;4.654;2022-11-28T10:07:19;9.80;99.90
16907;DHT22;8570;52.380;4.654;2022-11-28T10:12:36;9.90;99.90
16907;DHT22;8570;52.380;4.654;2022-11-28T10:17:48;9.90;99.90
16907;DHT22;8570;52.380;4.654;2022-11-28T10:22:55;9.90;99.90
16907;DHT22;8570;52.380;4.654;2022-11-28T10:28:00;9.90;99.90
16907;DHT22;8570;52.380;4.654;2022-11-28T10:33:11;9.90;99.90
16907;DHT22;8570;52.380;4.654;2022-11-28T10:38:17;9.90;99.90
16907;DHT22;8570;52.380;4.654;2022-11-28T10:43:34;10.00;99.90
16907;DHT22;8570;52.380;4.654;2022-11-28T10:48:42;10.00;99.90
16907;DHT22;8570;52.380;4.654;2022-11-28T10:53:54;10.10;99.90
16907;DHT22;8570;52.380;4.654;2022-11-28T10:59:07;10.20;99.90
16907;DHT22;8570;52.380;4.654;2022-11-28T11:04:18;10.20;99.90
16907;DHT22;8570;52.380;4.654;2022-11-28T11:09:20;10.30;99.90
16907;DHT22;8570;52.380;4.654;2022-11-28T11:14:32;10.30;99.90
16907;DHT22;8570;52.380;4.654;2022-11-28T11:19:38;10.40;99.90
16907;DHT22;8570;52.380;4.654;2022-11-28T11:24:45;10.40;99.90
16907;DHT22;8570;52.380;4.654;2022-11-28T11:30:17;10.50;99.90
16907;DHT22;8570;52.380;4.654;2022-11-28T11:35:25;10.60;99.90
16907;DHT22;8570;52.380;4.654;2022-11-28T11:40:28;10.70;99.90
16907;DHT22;8570;52.380;4.654;2022-11-28T11:45:33;10.90;99.90
16907;DHT22;8570;52.380;4.654;2022-11-28T11:50:35;11.00;99.90
16907;DHT22;8570;52.380;4.654;2022-11-28T11:55:44;11.00;99.90
16907;DHT22;8570;52.380;4.654;2022-11-28T12:00:51;11.00;99.90
16907;DHT22;8570;52.380;4.654;2022-11-28T12:05:56;11.00;99.90
16907;DHT22;8570;52.380;4.654;2022-11-28T12:11:07;11.00;99.90
16907;DHT22;8570;52.380;4.654;2022-11-28T12:16:33;11.10;99.90
16907;DHT22;8570;52.380;4.654;2022-11-28T12:21:44;11.10;99.90
16907;DHT22;8570;52.380;4.654;2022-11-28T12:26:49;11.40;99.90
16907;DHT22;8570;52.380;4.654;2022-11-28T12:32:03;11.60;99.90
16907;DHT22;8570;52.380;4.654;2022-11-28T12:37:13;11.60;99.90
16907;DHT22;8570;52.380;4.654;2022-11-28T12:42:30;11.50;99.90
16907;DHT22;8570;52.380;4.654;2022-11-28T12:47:45;11.50;99.90
16907;DHT22;8570;52.380;4.654;2022-11-28T12:53:05;11.50;99.90
16907;DHT22;8570;52.380;4.654;2022-11-28T12:58:15;11.40;99.90
16907;DHT22;8570;52.380;4.654;2022-11-28T13:03:33;11.50;99.90
16907;DHT22;8570;52.380;4.654;2022-11-28T13:08:49;11.40;99.90
16907;DHT22;8570;52.380;4.654;2022-11-28T13:13:59;11.40;99.90
16907;DHT22;8570;52.380;4.654;2022-11-28T13:19:10;11.50;99.90
16907;DHT22;8570;52.380;4.654;2022-11-28T13:24:23;11.50;99.90
16907;DHT22;8570;52.380;4.654;2022-11-28T13:29:34;11.40;99.90
16907;DHT22;8570;52.380;4.654;2022-11-28T13:34:54;11.50;99.90
16907;DHT22;8570;52.380;4.654;2022-11-28T13:40:12;11.50;99.90
16907;DHT22;8570;52.380;4.654;2022-11-28T13:45:24;11.50;99.90
16907;DHT22;8570;52.380;4.654;2022-11-28T13:50:58;11.40;99.90
16907;DHT22;8570;52.380;4.654;2022-11-28T13:56:23;11.50;99.90
16907;DHT22;8570;52.380;4.654;2022-11-28T14:01:26;11.50;99.90
16907;DHT22;8570;52.380;4.654;2022-11-28T14:06:45;11.50;99.90
16907;DHT22;8570;52.380;4.654;2022-11-28T14:11:56;11.50;99.90
16907;DHT22;8570;52.380;4.654;2022-11-28T14:17:18;11.40;99.90
16907;DHT22;8570;52.380;4.654;2022-11-28T14:22:48;11.40;99.90
16907;DHT22;8570;52.380;4.654;2022-11-28T14:27:55;11.40;99.90
16907;DHT22;8570;52.380;4.654;2022-11-28T14:33:15;11.30;99.90
16907;DHT22;8570;52.380;4.654;2022-11-28T14:38:59;11.30;99.90
16907;DHT22;8570;52.380;4.654;2022-11-28T14:44:44;11.20;99.90
16907;DHT22;8570;52.380;4.654;2022-11-28T14:49:46;11.20;99.90
16907;DHT22;8570;52.380;4.654;2022-11-28T14:54:51;11.20;99.90
16907;DHT22;8570;52.380;4.654;2022-11-28T14:59:56;11.20;99.90
16907;DHT22;8570;52.380;4.654;2022-11-28T15:05:21;11.20;99.90
16907;DHT22;8570;52.380;4.654;2022-11-28T15:10:37;11.20;99.90
16907;DHT22;8570;52.380;4.654;2022-11-28T15:15:46;11.10;99.90
16907;DHT22;8570;52.380;4.654;2022-11-28T15:20:52;11.10;99.90
16907;DHT22;8570;52.380;4.654;2022-11-28T15:25:58;11.10;99.90
16907;DHT22;8570;52.380;4.654;2022-11-28T15:31:02;11.10;99.90
16907;DHT22;8570;52.380;4.654;2022-11-28T15:36:07;11.00;99.90
16907;DHT22;8570;52.380;4.654;2022-11-28T15:41:21;11.00;99.90
16907;DHT22;8570;52.380;4.654;2022-11-28T15:46:28;10.90;99.90
16907;DHT22;8570;52.380;4.654;2022-11-28T15:51:32;10.90;99.90
16907;DHT22;8570;52.380;4.654;2022-11-28T15:56:36;10.90;99.90
16907;DHT22;8570;52.380;4.654;2022-11-28T16:01:38;10.80;99.90
16907;DHT22;8570;52.380;4.654;2022-11-28T16:06:43;10.80;99.90
16907;DHT22;8570;52.380;4.654;2022-11-28T16:11:49;10.70;99.90
16907;DHT22;8570;52.380;4.654;2022-11-28T16:16:52;10.70;99.90
16907;DHT22;8570;52.380;4.654;2022-11-28T16:21:56;10.60;99.90
16907;DHT22;8570;52.380;4.654;2022-11-28T16:27:02;10.50;99.90
16907;DHT22;8570;52.380;4.654;2022-11-28T16:32:07;10.50;99.90
16907;DHT22;8570;52.380;4.654;2022-11-28T16:37:09;10.50;99.90
16907;DHT22;8570;52.380;4.654;2022-11-28T16:42:15;10.40;99.90
16907;DHT22;8570;52.380;4.654;2022-11-28T16:47:25;10.40;99.90
16907;DHT22;8570;52.380;4.654;2022-11-28T16:52:46;10.30;99.90
16907;DHT22;8570;52.380;4.654;2022-11-28T16:57:53;10.30;99.90
16907;DHT22;8570;52.380;4.654;2022-11-28T17:02:59;10.20;99.90
16907;DHT22;8570;52.380;4.654;2022-11-28T17:08:01;10.20;99.90
16907;DHT22;8570;52.380;4.654;2022-11-28T17:13:05;10.20;99.90
16907;DHT22;8570;52.380;4.654;2022-11-28T17:18:07;10.30;99.90
16907;DHT22;8570;52.380;4.654;2022-11-28T17:23:12;10.40;99.90
16907;DHT22;8570;52.380;4.654;2022-11-28T17:28:20;10.40;99.90
16907;DHT22;8570;52.380;4.654;2022-11-28T17:33:34;10.30;99.90
16907;DHT22;8570;52.380;4.654;2022-11-28T17:38:43;10.20;99.90
16907;DHT22;8570;52.380;4.654;2022-11-28T17:44:00;10.10;99.90
16907;DHT22;8570;52.380;4.654;2022-11-28T17:49:05;10.00;99.90
16907;DHT22;8570;52.380;4.654;2022-11-28T17:54:09;10.00;99.90
16907;DHT22;8570;52.380;4.654;2022-11-28T17:59:14;9.90;99.90
16907;DHT22;8570;52.380;4.654;2022-11-28T18:04:16;9.90;99.90
16907;DHT22;8570;52.380;4.654;2022-11-28T18:09:19;9.80;99.90
16907;DHT22;8570;52.380;4.654;2022-11-28T18:14:22;9.80;99.90
16907;DHT22;8570;52.380;4.654;2022-11-28T18:19:24;9.80;99.90
16907;DHT22;8570;52.380;4.654;2022-11-28T18:24:26;9.70;99.90
16907;DHT22;8570;52.380;4.654;2022-11-28T18:29:32;9.70;99.90
16907;DHT22;8570;52.380;4.654;2022-11-28T18:34:39;9.60;99.90
16907;DHT22;8570;52.380;4.654;2022-11-28T18:39:51;9.60;99.90
16907;DHT22;8570;52.380;4.654;2022-11-28T18:45:06;9.50;99.90
16907;DHT22;8570;52.380;4.654;2022-11-28T18:50:09;9.50;99.90
16907;DHT22;8570;52.380;4.654;2022-11-28T18:55:11;9.50;99.90
16907;DHT22;8570;52.380;4.654;2022-11-28T19:00:40;9.40;99.90
16907;DHT22;8570;52.380;4.654;2022-11-28T19:05:45;9.40;99.90
16907;DHT22;8570;52.380;4.654;2022-11-28T19:10:47;9.40;99.90
16907;DHT22;8570;52.380;4.654;2022-11-28T19:15:56;9.40;99.90
16907;DHT22;8570;52.380;4.654;2022-11-28T19:21:05;9.40;99.90
16907;DHT22;8570;52.380;4.654;2022-11-28T19:26:18;9.60;99.90
16907;DHT22;8570;52.380;4.654;2022-11-28T19:31:32;9.60;99.90
16907;DHT22;8570;52.380;4.654;2022-11-28T19:36:39;9.50;99.90
16907;DHT22;8570;52.380;4.654;2022-11-28T19:41:46;9.50;99.90
16907;DHT22;8570;52.380;4.654;2022-11-28T19:52:19;9.40;99.90
16907;DHT22;8570;52.380;4.654;2022-11-28T19:57:21;9.40;99.90
16907;DHT22;8570;52.380;4.654;2022-11-28T20:02:31;9.40;99.90
16907;DHT22;8570;52.380;4.654;2022-11-28T20:07:33;9.40;99.90
16907;DHT22;8570;52.380;4.654;2022-11-28T20:12:38;9.40;99.90
16907;DHT22;8570;52.380;4.654;2022-11-28T20:17:43;9.40;99.90
16907;DHT22;8570;52.380;4.654;2022-11-28T20:22:47;9.30;99.90
16907;DHT22;8570;52.380;4.654;2022-11-28T20:27:52;9.30;99.90
16907;DHT22;8570;52.380;4.654;2022-11-28T20:32:56;9.40;99.90
16907;DHT22;8570;52.380;4.654;2022-11-28T20:37:58;9.40;99.90
16907;DHT22;8570;52.380;4.654;2022-11-28T20:43:00;9.40;99.90
16907;DHT22;8570;52.380;4.654;2022-11-28T20:48:03;9.40;99.90
16907;DHT22;8570;52.380;4.654;2022-11-28T20:53:05;9.40;99.90
16907;DHT22;8570;52.380;4.654;2022-11-28T20:58:07;9.40;99.90
16907;DHT22;8570;52.380;4.654;2022-11-28T21:03:10;9.40;99.90
16907;DHT22;8570;52.380;4.654;2022-11-28T21:08:12;9.40;99.90
16907;DHT22;8570;52.380;4.654;2022-11-28T21:13:14;9.30;99.90
16907;DHT22;8570;52.380;4.654;2022-11-28T21:18:18;9.30;99.90
16907;DHT22;8570;52.380;4.654;2022-11-28T21:23:20;9.30;99.90
16907;DHT22;8570;52.380;4.654;2022-11-28T21:28:21;9.30;99.90
16907;DHT22;8570;52.380;4.654;2022-11-28T21:33:25;9.20;99.90
16907;DHT22;8570;52.380;4.654;2022-11-28T21:38:27;9.20;99.90
16907;DHT22;8570;52.380;4.654;2022-11-28T21:43:29;9.20;99.90
16907;DHT22;8570;52.380;4.654;2022-11-28T21:48:35;9.20;99.90
16907;DHT22;8570;52.380;4.654;2022-11-28T21:53:37;9.20;99.90
16907;DHT22;8570;52.380;4.654;2022-11-28T21:58:39;9.20;99.90
16907;DHT22;8570;52.380;4.654;2022-11-28T22:03:43;9.20;99.90
16907;DHT22;8570;52.380;4.654;2022-11-28T22:08:45;9.10;99.90
16907;DHT22;8570;52.380;4.654;2022-11-28T22:13:48;9.20;99.90
16907;DHT22;8570;52.380;4.654;2022-11-28T22:18:53;9.20;99.90
16907;DHT22;8570;52.380;4.654;2022-11-28T22:23:55;9.20;99.90
16907;DHT22;8570;52.380;4.654;2022-11-28T22:28:57;9.20;99.90
16907;DHT22;8570;52.380;4.654;2022-11-28T22:34:01;9.20;99.90
16907;DHT22;8570;52.380;4.654;2022-11-28T22:39:03;9.20;99.90
16907;DHT22;8570;52.380;4.654;2022-11-28T22:44:05;9.20;99.90
16907;DHT22;8570;52.380;4.654;2022-11-28T22:49:09;9.20;99.90
16907;DHT22;8570;52.380;4.654;2022-11-28T22:54:11;9.30;99.90
16907;DHT22;8570;52.380;4.654;2022-11-28T22:59:14;9.30;99.90
16907;DHT22;8570;52.380;4.654;2022-11-28T23:04:18;9.30;99.90
16907;DHT22;8570;52.380;4.654;2022-11-28T23:09:20;9.30;99.90
16907;DHT22;8570;52.380;4.654;2022-11-28T23:14:22;9.30;99.90
16907;DHT22;8570;52.380;4.654;2022-11-28T23:19:25;9.30;99.90
16907;DHT22;8570;52.380;4.654;2022-11-28T23:24:27;9.30;99.90
16907;DHT22;8570;52.380;4.654;2022-11-28T23:29:29;9.30;99.90
16907;DHT22;8570;52.380;4.654;2022-11-28T23:34:33;9.30;99.90
16907;DHT22;8570;52.380;4.654;2022-11-28T23:39:34;9.30;99.90
16907;DHT22;8570;52.380;4.654;2022-11-28T23:44:36;9.30;99.90
16907;DHT22;8570;52.380;4.654;2022-11-28T23:49:39;9.30;99.90
16907;DHT22;8570;52.380;4.654;2022-11-28T23:54:41;9.20;99.90
16907;DHT22;8570;52.380;4.654;2022-11-28T23:59:43;9.20;99.90
